sensor_id;sensor_type;location;lat;lon;timestamp;P1;P2;P0
51258;PMS7003;37327;54.254;18.504;2022-09-09T00:00:31;0;0;0
51258;PMS7003;37327;54.254;18.504;2022-09-09T00:03:44;0;0;0
51258;PMS7003;37327;54.254;18.504;2022-09-09T00:16:55;0;0;0
51258;PMS7003;37327;54.254;18.504;2022-09-09T00:20:03;0;0;0
51258;PMS7003;37327;54.254;18.504;2022-09-09T00:29:53;0;0;0
51258;PMS7003;37327;54.254;18.504;2022-09-09T00:33:00;0;0;0
51258;PMS7003;37327;54.254;18.504;2022-09-09T00:36:09;1;0;0
51258;PMS7003;37327;54.254;18.504;2022-09-09T01:08:50;0;0;0
51258;PMS7003;37327;54.254;18.504;2022-09-09T01:12:03;0;0;0
51258;PMS7003;37327;54.254;18.504;2022-09-09T01:15:20;0;0;0
51258;PMS7003;37327;54.254;18.504;2022-09-09T01:18:31;1;0;0
51258;PMS7003;37327;54.254;18.504;2022-09-09T01:21:55;0;0;0
51258;PMS7003;37327;54.254;18.504;2022-09-09T01:28:21;0;0;0
51258;PMS7003;37327;54.254;18.504;2022-09-09T01:31:34;0;0;0
51258;PMS7003;37327;54.254;18.504;2022-09-09T01:34:41;0;0;0
51258;PMS7003;37327;54.254;18.504;2022-09-09T01:38:10;0;0;0
51258;PMS7003;37327;54.254;18.504;2022-09-09T01:41:15;0;0;0
51258;PMS7003;37327;54.254;18.504;2022-09-09T01:44:20;2;0;0
51258;PMS7003;37327;54.254;18.504;2022-09-09T01:47:26;0;0;0
51258;PMS7003;37327;54.254;18.504;2022-09-09T01:50:31;0;0;0
51258;PMS7003;37327;54.254;18.504;2022-09-09T01:53:35;0;0;0
51258;PMS7003;37327;54.254;18.504;2022-09-09T02:06:34;2;1;1
51258;PMS7003;37327;54.254;18.504;2022-09-09T02:09:41;0;0;0
51258;PMS7003;37327;54.254;18.504;2022-09-09T02:12:55;0;0;0
51258;PMS7003;37327;54.254;18.504;2022-09-09T02:16:07;0;0;0
51258;PMS7003;37327;54.254;18.504;2022-09-09T02:22:32;0;0;0
51258;PMS7003;37327;54.254;18.504;2022-09-09T02:25:46;0;0;0
51258;PMS7003;37327;54.254;18.504;2022-09-09T02:28:56;0;0;0
51258;PMS7003;37327;54.254;18.504;2022-09-09T02:35:22;0;0;0
51258;PMS7003;37327;54.254;18.504;2022-09-09T02:38:32;0;0;0
51258;PMS7003;37327;54.254;18.504;2022-09-09T02:41:48;0;0;0
51258;PMS7003;37327;54.254;18.504;2022-09-09T02:45:20;0;0;0
51258;PMS7003;37327;54.254;18.504;2022-09-09T02:48:36;0;0;0
51258;PMS7003;37327;54.254;18.504;2022-09-09T02:55:11;0;0;0
51258;PMS7003;37327;54.254;18.504;2022-09-09T02:58:19;0;0;0
51258;PMS7003;37327;54.254;18.504;2022-09-09T03:01:49;0;0;0
51258;PMS7003;37327;54.254;18.504;2022-09-09T03:04:59;0;0;0
51258;PMS7003;37327;54.254;18.504;2022-09-09T03:08:04;0;0;0
51258;PMS7003;37327;54.254;18.504;2022-09-09T03:11:10;0;0;0
51258;PMS7003;37327;54.254;18.504;2022-09-09T03:14:25;1;0;0
51258;PMS7003;37327;54.254;18.504;2022-09-09T03:17:38;0;0;0
51258;PMS7003;37327;54.254;18.504;2022-09-09T03:20:50;0;0;0
51258;PMS7003;37327;54.254;18.504;2022-09-09T03:23:58;0;0;0
51258;PMS7003;37327;54.254;18.504;2022-09-09T03:27:08;0;0;0
51258;PMS7003;37327;54.254;18.504;2022-09-09T03:30:23;0;0;0
51258;PMS7003;37327;54.254;18.504;2022-09-09T03:33:29;1;1;1
51258;PMS7003;37327;54.254;18.504;2022-09-09T03:36:41;1;1;1
51258;PMS7003;37327;54.254;18.504;2022-09-09T03:39:55;0;0;0
51258;PMS7003;37327;54.254;18.504;2022-09-09T03:43:13;1;1;1
51258;PMS7003;37327;54.254;18.504;2022-09-09T03:46:22;1;0;0
51258;PMS7003;37327;54.254;18.504;2022-09-09T03:49:31;1;0;0
51258;PMS7003;37327;54.254;18.504;2022-09-09T03:52:45;2;2;2
51258;PMS7003;37327;54.254;18.504;2022-09-09T03:59:17;1;1;1
51258;PMS7003;37327;54.254;18.504;2022-09-09T04:02:48;2;0;0
51258;PMS7003;37327;54.254;18.504;2022-09-09T04:06:01;2;0;0
51258;PMS7003;37327;54.254;18.504;2022-09-09T04:09:08;3;1;1
51258;PMS7003;37327;54.254;18.504;2022-09-09T04:12:22;1;1;1
51258;PMS7003;37327;54.254;18.504;2022-09-09T04:15:30;3;1;1
51258;PMS7003;37327;54.254;18.504;2022-09-09T04:18:44;1;1;1
51258;PMS7003;37327;54.254;18.504;2022-09-09T04:21:59;1;1;0
51258;PMS7003;37327;54.254;18.504;2022-09-09T04:25:32;0;0;0
51258;PMS7003;37327;54.254;18.504;2022-09-09T04:28:47;1;1;1
51258;PMS7003;37327;54.254;18.504;2022-09-09T04:31:52;1;1;1
51258;PMS7003;37327;54.254;18.504;2022-09-09T04:35:06;1;1;1
51258;PMS7003;37327;54.254;18.504;2022-09-09T04:38:13;2;1;1
51258;PMS7003;37327;54.254;18.504;2022-09-09T04:41:43;2;1;1
51258;PMS7003;37327;54.254;18.504;2022-09-09T04:44:48;1;1;0
51258;PMS7003;37327;54.254;18.504;2022-09-09T04:47:52;2;2;2
51258;PMS7003;37327;54.254;18.504;2022-09-09T04:50:59;1;1;1
51258;PMS7003;37327;54.254;18.504;2022-09-09T04:54:18;2;2;1
51258;PMS7003;37327;54.254;18.504;2022-09-09T04:57:28;2;2;2
51258;PMS7003;37327;54.254;18.504;2022-09-09T05:00:44;1;1;1
51258;PMS7003;37327;54.254;18.504;2022-09-09T05:03:50;2;1;1
51258;PMS7003;37327;54.254;18.504;2022-09-09T05:06:57;4;2;2
51258;PMS7003;37327;54.254;18.504;2022-09-09T05:10:09;1;1;1
51258;PMS7003;37327;54.254;18.504;2022-09-09T05:13:14;1;1;1
51258;PMS7003;37327;54.254;18.504;2022-09-09T05:16:47;3;1;1
51258;PMS7003;37327;54.254;18.504;2022-09-09T05:20:01;3;0;0
51258;PMS7003;37327;54.254;18.504;2022-09-09T05:23:15;0;0;0
51258;PMS7003;37327;54.254;18.504;2022-09-09T05:26:21;0;0;0
51258;PMS7003;37327;54.254;18.504;2022-09-09T05:29:28;1;1;1
51258;PMS7003;37327;54.254;18.504;2022-09-09T05:32:40;0;0;0
51258;PMS7003;37327;54.254;18.504;2022-09-09T05:36:20;0;0;0
51258;PMS7003;37327;54.254;18.504;2022-09-09T05:39:27;0;0;0
51258;PMS7003;37327;54.254;18.504;2022-09-09T05:46:12;2;1;1
51258;PMS7003;37327;54.254;18.504;2022-09-09T05:49:05;1;1;1
51258;PMS7003;37327;54.254;18.504;2022-09-09T05:52:16;3;1;1
51258;PMS7003;37327;54.254;18.504;2022-09-09T05:55:47;1;1;1
51258;PMS7003;37327;54.254;18.504;2022-09-09T05:58:54;1;1;1
51258;PMS7003;37327;54.254;18.504;2022-09-09T06:02:08;1;1;1
51258;PMS7003;37327;54.254;18.504;2022-09-09T06:05:19;1;1;1
51258;PMS7003;37327;54.254;18.504;2022-09-09T06:08:26;1;1;0
51258;PMS7003;37327;54.254;18.504;2022-09-09T06:11:47;1;1;1
51258;PMS7003;37327;54.254;18.504;2022-09-09T06:15:17;6;5;4
51258;PMS7003;37327;54.254;18.504;2022-09-09T06:18:25;2;1;1
51258;PMS7003;37327;54.254;18.504;2022-09-09T06:21:37;0;0;0
51258;PMS7003;37327;54.254;18.504;2022-09-09T06:24:43;0;0;0
51258;PMS7003;37327;54.254;18.504;2022-09-09T06:27:48;1;1;1
51258;PMS7003;37327;54.254;18.504;2022-09-09T06:34:08;1;1;1
51258;PMS7003;37327;54.254;18.504;2022-09-09T06:37:38;1;0;0
51258;PMS7003;37327;54.254;18.504;2022-09-09T06:40:43;0;0;0
51258;PMS7003;37327;54.254;18.504;2022-09-09T06:44:01;0;0;0
51258;PMS7003;37327;54.254;18.504;2022-09-09T06:47:10;0;0;0
51258;PMS7003;37327;54.254;18.504;2022-09-09T06:50:18;0;0;0
51258;PMS7003;37327;54.254;18.504;2022-09-09T06:53:24;0;0;0
51258;PMS7003;37327;54.254;18.504;2022-09-09T06:56:31;0;0;0
51258;PMS7003;37327;54.254;18.504;2022-09-09T06:59:46;0;0;0
51258;PMS7003;37327;54.254;18.504;2022-09-09T07:02:59;0;0;0
51258;PMS7003;37327;54.254;18.504;2022-09-09T07:06:15;0;0;0
51258;PMS7003;37327;54.254;18.504;2022-09-09T07:09:28;0;0;0
51258;PMS7003;37327;54.254;18.504;2022-09-09T07:12:42;0;0;0
51258;PMS7003;37327;54.254;18.504;2022-09-09T07:15:47;0;0;0
51258;PMS7003;37327;54.254;18.504;2022-09-09T07:18:57;0;0;0
51258;PMS7003;37327;54.254;18.504;2022-09-09T07:22:29;1;1;1
51258;PMS7003;37327;54.254;18.504;2022-09-09T07:25:45;2;0;0
51258;PMS7003;37327;54.254;18.504;2022-09-09T07:28:51;0;0;0
51258;PMS7003;37327;54.254;18.504;2022-09-09T07:32:00;0;0;0
51258;PMS7003;37327;54.254;18.504;2022-09-09T07:35:07;1;1;1
51258;PMS7003;37327;54.254;18.504;2022-09-09T07:38:11;1;0;0
51258;PMS7003;37327;54.254;18.504;2022-09-09T07:41:17;0;0;0
51258;PMS7003;37327;54.254;18.504;2022-09-09T07:44:27;0;0;0
51258;PMS7003;37327;54.254;18.504;2022-09-09T07:47:38;1;1;1
51258;PMS7003;37327;54.254;18.504;2022-09-09T07:50:49;1;1;1
51258;PMS7003;37327;54.254;18.504;2022-09-09T07:57:10;0;0;0
51258;PMS7003;37327;54.254;18.504;2022-09-09T08:00:25;0;0;0
51258;PMS7003;37327;54.254;18.504;2022-09-09T08:03:32;0;0;0
51258;PMS7003;37327;54.254;18.504;2022-09-09T08:06:50;1;0;0
51258;PMS7003;37327;54.254;18.504;2022-09-09T08:10:01;0;0;0
51258;PMS7003;37327;54.254;18.504;2022-09-09T08:13:14;0;0;0
51258;PMS7003;37327;54.254;18.504;2022-09-09T08:16:24;0;0;0
51258;PMS7003;37327;54.254;18.504;2022-09-09T08:19:39;2;0;0
51258;PMS7003;37327;54.254;18.504;2022-09-09T08:22:46;0;0;0
51258;PMS7003;37327;54.254;18.504;2022-09-09T08:26:02;1;0;0
51258;PMS7003;37327;54.254;18.504;2022-09-09T08:29:13;0;0;0
51258;PMS7003;37327;54.254;18.504;2022-09-09T08:32:25;0;0;0
51258;PMS7003;37327;54.254;18.504;2022-09-09T08:35:54;0;0;0
51258;PMS7003;37327;54.254;18.504;2022-09-09T08:39:00;0;0;0
51258;PMS7003;37327;54.254;18.504;2022-09-09T08:45:35;0;0;0
51258;PMS7003;37327;54.254;18.504;2022-09-09T08:52:17;0;0;0
51258;PMS7003;37327;54.254;18.504;2022-09-09T08:58:44;1;0;0
51258;PMS7003;37327;54.254;18.504;2022-09-09T09:02:03;0;0;0
51258;PMS7003;37327;54.254;18.504;2022-09-09T09:05:19;1;0;0
51258;PMS7003;37327;54.254;18.504;2022-09-09T09:08:40;0;0;0
51258;PMS7003;37327;54.254;18.504;2022-09-09T09:11:57;1;0;0
51258;PMS7003;37327;54.254;18.504;2022-09-09T09:15:11;0;0;0
51258;PMS7003;37327;54.254;18.504;2022-09-09T09:18:23;0;0;0
51258;PMS7003;37327;54.254;18.504;2022-09-09T09:24:55;0;0;0
51258;PMS7003;37327;54.254;18.504;2022-09-09T09:28:12;1;0;0
51258;PMS7003;37327;54.254;18.504;2022-09-09T09:31:29;0;0;0
51258;PMS7003;37327;54.254;18.504;2022-09-09T09:34:57;1;1;1
51258;PMS7003;37327;54.254;18.504;2022-09-09T09:41:31;0;0;0
51258;PMS7003;37327;54.254;18.504;2022-09-09T09:44:43;2;1;1
51258;PMS7003;37327;54.254;18.504;2022-09-09T09:48:03;1;1;1
51258;PMS7003;37327;54.254;18.504;2022-09-09T09:51:22;0;0;0
51258;PMS7003;37327;54.254;18.504;2022-09-09T09:54:29;1;1;1
51258;PMS7003;37327;54.254;18.504;2022-09-09T09:57:41;0;0;0
51258;PMS7003;37327;54.254;18.504;2022-09-09T10:00:50;1;1;1
51258;PMS7003;37327;54.254;18.504;2022-09-09T10:04:00;1;1;1
51258;PMS7003;37327;54.254;18.504;2022-09-09T10:07:21;1;1;1
51258;PMS7003;37327;54.254;18.504;2022-09-09T10:13:56;2;2;2
51258;PMS7003;37327;54.254;18.504;2022-09-09T10:17:14;1;1;1
51258;PMS7003;37327;54.254;18.504;2022-09-09T10:34:04;1;1;1
51258;PMS7003;37327;54.254;18.504;2022-09-09T10:40:41;3;3;3
51258;PMS7003;37327;54.254;18.504;2022-09-09T11:00:51;1;1;1
51258;PMS7003;37327;54.254;18.504;2022-09-09T11:07:29;3;2;2
51258;PMS7003;37327;54.254;18.504;2022-09-09T11:24:14;2;2;2
51258;PMS7003;37327;54.254;18.504;2022-09-09T11:27:33;3;3;3
51258;PMS7003;37327;54.254;18.504;2022-09-09T11:40:59;2;2;2
51258;PMS7003;37327;54.254;18.504;2022-09-09T11:44:26;2;2;2
51258;PMS7003;37327;54.254;18.504;2022-09-09T11:47:34;4;4;3
51258;PMS7003;37327;54.254;18.504;2022-09-09T11:54:47;3;3;3
51258;PMS7003;37327;54.254;18.504;2022-09-09T12:01:25;4;4;4
51258;PMS7003;37327;54.254;18.504;2022-09-09T12:04:36;6;3;3
51258;PMS7003;37327;54.254;18.504;2022-09-09T12:07:58;5;5;4
51258;PMS7003;37327;54.254;18.504;2022-09-09T12:11:34;4;4;4
51258;PMS7003;37327;54.254;18.504;2022-09-09T12:17:54;3;3;2
51258;PMS7003;37327;54.254;18.504;2022-09-09T12:31:21;5;5;5
51258;PMS7003;37327;54.254;18.504;2022-09-09T12:34:41;4;3;3
51258;PMS7003;37327;54.254;18.504;2022-09-09T12:38:00;4;4;4
51258;PMS7003;37327;54.254;18.504;2022-09-09T12:44:35;4;4;3
51258;PMS7003;37327;54.254;18.504;2022-09-09T12:48:06;6;4;3
51258;PMS7003;37327;54.254;18.504;2022-09-09T12:54:48;7;7;5
51258;PMS7003;37327;54.254;18.504;2022-09-09T12:57:57;5;5;5
51258;PMS7003;37327;54.254;18.504;2022-09-09T13:01:23;5;4;4
51258;PMS7003;37327;54.254;18.504;2022-09-09T13:04:32;3;3;3
51258;PMS7003;37327;54.254;18.504;2022-09-09T13:07:44;4;4;3
51258;PMS7003;37327;54.254;18.504;2022-09-09T13:14:28;6;6;6
51258;PMS7003;37327;54.254;18.504;2022-09-09T13:17:40;4;4;3
51258;PMS7003;37327;54.254;18.504;2022-09-09T13:21:11;5;5;5
51258;PMS7003;37327;54.254;18.504;2022-09-09T13:24:29;5;5;5
51258;PMS7003;37327;54.254;18.504;2022-09-09T13:34:38;6;5;4
51258;PMS7003;37327;54.254;18.504;2022-09-09T13:37:56;5;5;5
51258;PMS7003;37327;54.254;18.504;2022-09-09T13:41:19;4;4;4
51258;PMS7003;37327;54.254;18.504;2022-09-09T13:44:35;5;5;4
51258;PMS7003;37327;54.254;18.504;2022-09-09T13:47:51;5;4;4
51258;PMS7003;37327;54.254;18.504;2022-09-09T13:51:21;6;5;4
51258;PMS7003;37327;54.254;18.504;2022-09-09T13:54:27;8;7;7
51258;PMS7003;37327;54.254;18.504;2022-09-09T14:01:11;15;14;13
51258;PMS7003;37327;54.254;18.504;2022-09-09T14:04:25;24;23;19
51258;PMS7003;37327;54.254;18.504;2022-09-09T14:07:42;13;13;10
51258;PMS7003;37327;54.254;18.504;2022-09-09T14:10:56;0;0;0
51258;PMS7003;37327;54.254;18.504;2022-09-09T14:14:11;8;8;7
51258;PMS7003;37327;54.254;18.504;2022-09-09T14:17:25;6;6;5
51258;PMS7003;37327;54.254;18.504;2022-09-09T14:20:35;7;7;7
51258;PMS7003;37327;54.254;18.504;2022-09-09T14:24:06;8;8;7
51258;PMS7003;37327;54.254;18.504;2022-09-09T14:27:12;8;8;6
51258;PMS7003;37327;54.254;18.504;2022-09-09T14:30:20;7;7;7
51258;PMS7003;37327;54.254;18.504;2022-09-09T14:33:25;7;7;7
51258;PMS7003;37327;54.254;18.504;2022-09-09T14:36:44;8;8;8
51258;PMS7003;37327;54.254;18.504;2022-09-09T14:39:58;7;7;7
51258;PMS7003;37327;54.254;18.504;2022-09-09T14:43:13;8;7;7
51258;PMS7003;37327;54.254;18.504;2022-09-09T14:46:27;8;8;7
51258;PMS7003;37327;54.254;18.504;2022-09-09T14:49:39;8;8;8
51258;PMS7003;37327;54.254;18.504;2022-09-09T14:52:53;10;9;8
51258;PMS7003;37327;54.254;18.504;2022-09-09T14:56:09;8;8;8
51258;PMS7003;37327;54.254;18.504;2022-09-09T14:59:30;8;8;8
51258;PMS7003;37327;54.254;18.504;2022-09-09T15:03:00;9;9;8
51258;PMS7003;37327;54.254;18.504;2022-09-09T15:06:11;9;9;8
51258;PMS7003;37327;54.254;18.504;2022-09-09T15:09:25;8;8;7
51258;PMS7003;37327;54.254;18.504;2022-09-09T15:12:38;8;8;8
51258;PMS7003;37327;54.254;18.504;2022-09-09T15:15:44;7;7;7
51258;PMS7003;37327;54.254;18.504;2022-09-09T15:18:56;8;8;7
51258;PMS7003;37327;54.254;18.504;2022-09-09T15:22:09;8;8;7
51258;PMS7003;37327;54.254;18.504;2022-09-09T15:25:23;8;8;7
51258;PMS7003;37327;54.254;18.504;2022-09-09T15:28:36;6;6;6
51258;PMS7003;37327;54.254;18.504;2022-09-09T15:31:48;8;8;7
51258;PMS7003;37327;54.254;18.504;2022-09-09T15:35:03;9;9;8
51258;PMS7003;37327;54.254;18.504;2022-09-09T15:38:14;9;9;9
51258;PMS7003;37327;54.254;18.504;2022-09-09T15:41:25;9;8;7
51258;PMS7003;37327;54.254;18.504;2022-09-09T15:44:40;10;9;8
51258;PMS7003;37327;54.254;18.504;2022-09-09T15:47:49;8;8;8
51258;PMS7003;37327;54.254;18.504;2022-09-09T15:51:04;12;10;8
51258;PMS7003;37327;54.254;18.504;2022-09-09T15:54:16;9;9;7
51258;PMS7003;37327;54.254;18.504;2022-09-09T15:57:29;10;9;8
51258;PMS7003;37327;54.254;18.504;2022-09-09T16:00:42;9;8;7
51258;PMS7003;37327;54.254;18.504;2022-09-09T16:03:50;9;8;7
51258;PMS7003;37327;54.254;18.504;2022-09-09T16:07:06;8;8;7
51258;PMS7003;37327;54.254;18.504;2022-09-09T16:10:37;12;10;9
51258;PMS7003;37327;54.254;18.504;2022-09-09T16:13:51;11;11;9
51258;PMS7003;37327;54.254;18.504;2022-09-09T16:17:01;10;10;9
51258;PMS7003;37327;54.254;18.504;2022-09-09T16:20:17;8;8;8
51258;PMS7003;37327;54.254;18.504;2022-09-09T16:23:23;12;11;9
51258;PMS7003;37327;54.254;18.504;2022-09-09T16:26:55;9;9;7
51258;PMS7003;37327;54.254;18.504;2022-09-09T16:30:08;9;9;8
51258;PMS7003;37327;54.254;18.504;2022-09-09T16:33:24;10;10;9
51258;PMS7003;37327;54.254;18.504;2022-09-09T16:36:34;9;8;8
51258;PMS7003;37327;54.254;18.504;2022-09-09T16:39:53;10;10;9
51258;PMS7003;37327;54.254;18.504;2022-09-09T16:43:07;10;9;9
51258;PMS7003;37327;54.254;18.504;2022-09-09T16:46:20;17;12;11
51258;PMS7003;37327;54.254;18.504;2022-09-09T16:49:33;13;12;11
51258;PMS7003;37327;54.254;18.504;2022-09-09T16:52:47;11;10;9
51258;PMS7003;37327;54.254;18.504;2022-09-09T16:55:59;11;11;10
51258;PMS7003;37327;54.254;18.504;2022-09-09T16:59:20;12;11;10
51258;PMS7003;37327;54.254;18.504;2022-09-09T17:02:30;11;11;10
51258;PMS7003;37327;54.254;18.504;2022-09-09T17:05:47;12;11;8
51258;PMS7003;37327;54.254;18.504;2022-09-09T17:08:57;11;10;9
51258;PMS7003;37327;54.254;18.504;2022-09-09T17:12:17;12;9;9
51258;PMS7003;37327;54.254;18.504;2022-09-09T17:15:39;12;12;11
51258;PMS7003;37327;54.254;18.504;2022-09-09T17:18:52;13;12;10
51258;PMS7003;37327;54.254;18.504;2022-09-09T17:22:08;17;15;14
51258;PMS7003;37327;54.254;18.504;2022-09-09T17:25:23;17;16;13
51258;PMS7003;37327;54.254;18.504;2022-09-09T17:28:35;17;15;12
51258;PMS7003;37327;54.254;18.504;2022-09-09T17:31:49;17;16;14
51258;PMS7003;37327;54.254;18.504;2022-09-09T17:35:00;14;14;12
51258;PMS7003;37327;54.254;18.504;2022-09-09T17:38:15;22;20;16
51258;PMS7003;37327;54.254;18.504;2022-09-09T17:41:44;24;21;18
51258;PMS7003;37327;54.254;18.504;2022-09-09T17:44:50;17;16;13
51258;PMS7003;37327;54.254;18.504;2022-09-09T17:48:02;18;17;14
51258;PMS7003;37327;54.254;18.504;2022-09-09T17:51:15;22;20;15
51258;PMS7003;37327;54.254;18.504;2022-09-09T17:54:35;18;18;16
51258;PMS7003;37327;54.254;18.504;2022-09-09T17:57:57;18;17;14
51258;PMS7003;37327;54.254;18.504;2022-09-09T18:01:10;17;17;14
51258;PMS7003;37327;54.254;18.504;2022-09-09T18:04:29;14;14;11
51258;PMS7003;37327;54.254;18.504;2022-09-09T18:07:40;10;9;7
51258;PMS7003;37327;54.254;18.504;2022-09-09T18:10:52;18;15;12
51258;PMS7003;37327;54.254;18.504;2022-09-09T18:13:59;20;18;15
51258;PMS7003;37327;54.254;18.504;2022-09-09T18:17:08;21;20;15
51258;PMS7003;37327;54.254;18.504;2022-09-09T18:20:20;23;20;18
51258;PMS7003;37327;54.254;18.504;2022-09-09T18:23:29;20;19;17
51258;PMS7003;37327;54.254;18.504;2022-09-09T18:26:45;13;12;10
51258;PMS7003;37327;54.254;18.504;2022-09-09T18:30:01;19;17;13
51258;PMS7003;37327;54.254;18.504;2022-09-09T18:33:17;18;17;14
51258;PMS7003;37327;54.254;18.504;2022-09-09T18:36:31;18;16;15
51258;PMS7003;37327;54.254;18.504;2022-09-09T18:39:41;11;10;8
51258;PMS7003;37327;54.254;18.504;2022-09-09T18:43:11;16;16;13
51258;PMS7003;37327;54.254;18.504;2022-09-09T18:46:32;14;13;11
51258;PMS7003;37327;54.254;18.504;2022-09-09T18:49:38;16;15;14
51258;PMS7003;37327;54.254;18.504;2022-09-09T18:52:53;11;11;10
51258;PMS7003;37327;54.254;18.504;2022-09-09T18:56:03;14;14;11
51258;PMS7003;37327;54.254;18.504;2022-09-09T18:59:18;14;14;12
51258;PMS7003;37327;54.254;18.504;2022-09-09T19:02:26;13;13;11
51258;PMS7003;37327;54.254;18.504;2022-09-09T19:05:41;14;14;11
51258;PMS7003;37327;54.254;18.504;2022-09-09T19:08:51;12;11;10
51258;PMS7003;37327;54.254;18.504;2022-09-09T19:12:06;4;4;3
51258;PMS7003;37327;54.254;18.504;2022-09-09T19:15:18;15;14;12
51258;PMS7003;37327;54.254;18.504;2022-09-09T19:18:23;15;14;13
51258;PMS7003;37327;54.254;18.504;2022-09-09T19:21:31;19;15;13
51258;PMS7003;37327;54.254;18.504;2022-09-09T19:24:49;16;14;12
51258;PMS7003;37327;54.254;18.504;2022-09-09T19:27:59;17;16;13
51258;PMS7003;37327;54.254;18.504;2022-09-09T19:31:16;13;12;10
51258;PMS7003;37327;54.254;18.504;2022-09-09T19:34:33;16;15;12
51258;PMS7003;37327;54.254;18.504;2022-09-09T19:37:44;13;13;11
51258;PMS7003;37327;54.254;18.504;2022-09-09T19:40:49;20;18;14
51258;PMS7003;37327;54.254;18.504;2022-09-09T19:44:19;36;32;23
51258;PMS7003;37327;54.254;18.504;2022-09-09T19:47:25;21;19;16
51258;PMS7003;37327;54.254;18.504;2022-09-09T19:50:29;16;15;13
51258;PMS7003;37327;54.254;18.504;2022-09-09T19:53:35;15;15;12
51258;PMS7003;37327;54.254;18.504;2022-09-09T19:56:41;12;12;10
51258;PMS7003;37327;54.254;18.504;2022-09-09T19:59:48;12;12;11
51258;PMS7003;37327;54.254;18.504;2022-09-09T20:03:01;12;12;11
51258;PMS7003;37327;54.254;18.504;2022-09-09T20:06:32;15;13;12
51258;PMS7003;37327;54.254;18.504;2022-09-09T20:09:38;16;14;11
51258;PMS7003;37327;54.254;18.504;2022-09-09T20:12:48;16;13;11
51258;PMS7003;37327;54.254;18.504;2022-09-09T20:16:06;13;13;11
51258;PMS7003;37327;54.254;18.504;2022-09-09T20:19:17;14;14;12
51258;PMS7003;37327;54.254;18.504;2022-09-09T20:22:28;13;13;11
51258;PMS7003;37327;54.254;18.504;2022-09-09T20:25:37;11;11;10
51258;PMS7003;37327;54.254;18.504;2022-09-09T20:28:50;11;11;9
51258;PMS7003;37327;54.254;18.504;2022-09-09T20:32:01;15;14;12
51258;PMS7003;37327;54.254;18.504;2022-09-09T20:35:07;16;16;12
51258;PMS7003;37327;54.254;18.504;2022-09-09T20:38:13;16;16;13
51258;PMS7003;37327;54.254;18.504;2022-09-09T20:41:45;13;12;9
51258;PMS7003;37327;54.254;18.504;2022-09-09T20:44:57;13;13;11
51258;PMS7003;37327;54.254;18.504;2022-09-09T20:48:04;15;13;10
51258;PMS7003;37327;54.254;18.504;2022-09-09T20:51:09;12;12;11
51258;PMS7003;37327;54.254;18.504;2022-09-09T20:54:17;14;13;11
51258;PMS7003;37327;54.254;18.504;2022-09-09T20:57:25;11;11;10
51258;PMS7003;37327;54.254;18.504;2022-09-09T21:00:34;11;11;10
51258;PMS7003;37327;54.254;18.504;2022-09-09T21:07:02;31;30;23
51258;PMS7003;37327;54.254;18.504;2022-09-09T21:10:09;34;30;23
51258;PMS7003;37327;54.254;18.504;2022-09-09T21:13:18;24;23;18
51258;PMS7003;37327;54.254;18.504;2022-09-09T21:16:26;16;14;13
51258;PMS7003;37327;54.254;18.504;2022-09-09T21:19:57;11;11;10
51258;PMS7003;37327;54.254;18.504;2022-09-09T21:23:11;15;14;12
51258;PMS7003;37327;54.254;18.504;2022-09-09T21:26:18;13;13;10
51258;PMS7003;37327;54.254;18.504;2022-09-09T21:29:29;11;9;8
51258;PMS7003;37327;54.254;18.504;2022-09-09T21:32:43;14;14;12
51258;PMS7003;37327;54.254;18.504;2022-09-09T21:35:54;13;12;11
51258;PMS7003;37327;54.254;18.504;2022-09-09T21:39:06;12;11;10
51258;PMS7003;37327;54.254;18.504;2022-09-09T21:42:15;15;11;10
51258;PMS7003;37327;54.254;18.504;2022-09-09T21:45:27;13;12;11
51258;PMS7003;37327;54.254;18.504;2022-09-09T21:48:58;10;10;7
51258;PMS7003;37327;54.254;18.504;2022-09-09T21:52:09;13;12;10
51258;PMS7003;37327;54.254;18.504;2022-09-09T21:55:19;14;13;11
51258;PMS7003;37327;54.254;18.504;2022-09-09T21:58:23;10;10;9
51258;PMS7003;37327;54.254;18.504;2022-09-09T22:01:31;9;9;8
51258;PMS7003;37327;54.254;18.504;2022-09-09T22:04:45;8;8;7
51258;PMS7003;37327;54.254;18.504;2022-09-09T22:07:54;10;10;9
51258;PMS7003;37327;54.254;18.504;2022-09-09T22:11:24;34;32;23
51258;PMS7003;37327;54.254;18.504;2022-09-09T22:14:28;16;15;13
51258;PMS7003;37327;54.254;18.504;2022-09-09T22:17:35;12;12;10
51258;PMS7003;37327;54.254;18.504;2022-09-09T22:20:50;9;7;6
51258;PMS7003;37327;54.254;18.504;2022-09-09T22:24:01;12;12;9
51258;PMS7003;37327;54.254;18.504;2022-09-09T22:27:18;16;14;11
51258;PMS7003;37327;54.254;18.504;2022-09-09T22:30:32;8;8;7
51258;PMS7003;37327;54.254;18.504;2022-09-09T22:33:47;10;10;8
51258;PMS7003;37327;54.254;18.504;2022-09-09T22:37:00;10;9;8
51258;PMS7003;37327;54.254;18.504;2022-09-09T22:40:17;8;8;8
51258;PMS7003;37327;54.254;18.504;2022-09-09T22:43:31;14;13;10
51258;PMS7003;37327;54.254;18.504;2022-09-09T22:46:45;8;8;8
51258;PMS7003;37327;54.254;18.504;2022-09-09T22:50:02;10;10;9
51258;PMS7003;37327;54.254;18.504;2022-09-09T22:53:32;9;9;8
51258;PMS7003;37327;54.254;18.504;2022-09-09T22:56:38;11;10;9
51258;PMS7003;37327;54.254;18.504;2022-09-09T22:59:45;8;8;7
51258;PMS7003;37327;54.254;18.504;2022-09-09T23:02:50;9;9;8
51258;PMS7003;37327;54.254;18.504;2022-09-09T23:06:08;13;9;8
51258;PMS7003;37327;54.254;18.504;2022-09-09T23:12:30;10;10;8
51258;PMS7003;37327;54.254;18.504;2022-09-09T23:16:06;10;9;9
51258;PMS7003;37327;54.254;18.504;2022-09-09T23:19:15;9;9;8
51258;PMS7003;37327;54.254;18.504;2022-09-09T23:22:34;9;9;8
51258;PMS7003;37327;54.254;18.504;2022-09-09T23:25:46;9;9;8
51258;PMS7003;37327;54.254;18.504;2022-09-09T23:28:59;8;8;7
51258;PMS7003;37327;54.254;18.504;2022-09-09T23:32:11;11;9;8
51258;PMS7003;37327;54.254;18.504;2022-09-09T23:35:18;9;9;9
51258;PMS7003;37327;54.254;18.504;2022-09-09T23:38:31;9;9;8
51258;PMS7003;37327;54.254;18.504;2022-09-09T23:41:37;8;8;7
51258;PMS7003;37327;54.254;18.504;2022-09-09T23:44:48;8;8;7
51258;PMS7003;37327;54.254;18.504;2022-09-09T23:48:04;12;11;9
51258;PMS7003;37327;54.254;18.504;2022-09-09T23:51:12;11;9;9
51258;PMS7003;37327;54.254;18.504;2022-09-09T23:54:23;10;10;8
51258;PMS7003;37327;54.254;18.504;2022-09-09T23:57:33;9;8;7
